Terminal Aerodrome Forecast
Issued by NWS Denver/Boulder, CO

Home | Current Version | Previous Version | Text Only | Print | Product List | Glossary On
Versions: 1 2 3 4 5 6 7 8 9 10 11 12 13 14 15 16 17 18 19 20 21 22 23 24 25 26 27 28 29 30 31 32 33 34 35 36 37 38 39 40 41 42 43 44 45 46 47 48 49 50
000
FTUS45 KBOU 180430 AAK
TAFDEN
TAF AMD
KDEN 180430Z 1805/1906 30010KT P6SM VCSH SCT008 BKN070
      TEMPO 1805/1806 BKN008
     FM180600 28008KT P6SM VCSH SCT008 BKN050
      TEMPO 1806/1808 5SM -SNRA BR SCT010 BKN025
     FM180900 28008KT P6SM VCSH SCT025 BKN050
     FM181200 27006KT P6SM VCFG SCT010 SCT030
      TEMPO 1812/1815 1SM BR BKN010
     FM181600 29008KT P6SM VCSH SCT030 SCT080
     FM182000 31008KT P6SM VCSH SCT050 BKN110 PROB30 1821/1903 -SHRA
      BKN050=

USA.gov is the U.S. government's official web portal to all federal, state and local government web resources and services.